sensor_id;sensor_type;location;lat;lon;timestamp;P1;durP1;ratioP1;P2;durP2;ratioP2
29320;SDS011;16323;51.130;6.612;2023-04-15T00:01:51;1.58;;;0.60;;
29320;SDS011;16323;51.130;6.612;2023-04-15T00:04:18;1.63;;;0.70;;
29320;SDS011;16323;51.130;6.612;2023-04-15T00:06:48;1.17;;;0.70;;
29320;SDS011;16323;51.130;6.612;2023-04-15T00:09:18;1.58;;;0.85;;
29320;SDS011;16323;51.130;6.612;2023-04-15T00:11:45;1.23;;;0.90;;
29320;SDS011;16323;51.130;6.612;2023-04-15T00:14:12;2.88;;;1.20;;
29320;SDS011;16323;51.130;6.612;2023-04-15T00:16:39;1.20;;;0.85;;
29320;SDS011;16323;51.130;6.612;2023-04-15T00:19:06;2.58;;;0.88;;
29320;SDS011;16323;51.130;6.612;2023-04-15T00:21:33;1.38;;;0.95;;
29320;SDS011;16323;51.130;6.612;2023-04-15T00:24:00;2.80;;;1.20;;
29320;SDS011;16323;51.130;6.612;2023-04-15T00:26:29;1.65;;;0.88;;
29320;SDS011;16323;51.130;6.612;2023-04-15T00:28:56;3.22;;;1.00;;
29320;SDS011;16323;51.130;6.612;2023-04-15T00:31:23;1.65;;;0.93;;
29320;SDS011;16323;51.130;6.612;2023-04-15T00:33:49;1.60;;;1.05;;
29320;SDS011;16323;51.130;6.612;2023-04-15T00:36:17;1.65;;;0.95;;
29320;SDS011;16323;51.130;6.612;2023-04-15T00:38:43;1.60;;;0.90;;
29320;SDS011;16323;51.130;6.612;2023-04-15T00:41:10;2.58;;;0.95;;
29320;SDS011;16323;51.130;6.612;2023-04-15T00:43:39;2.95;;;1.20;;
29320;SDS011;16323;51.130;6.612;2023-04-15T00:46:06;1.60;;;1.10;;
29320;SDS011;16323;51.130;6.612;2023-04-15T00:48:34;1.48;;;1.02;;
29320;SDS011;16323;51.130;6.612;2023-04-15T00:51:02;1.95;;;1.00;;
29320;SDS011;16323;51.130;6.612;2023-04-15T00:53:29;1.73;;;1.00;;
29320;SDS011;16323;51.130;6.612;2023-04-15T00:55:56;1.67;;;0.80;;
29320;SDS011;16323;51.130;6.612;2023-04-15T00:58:22;2.35;;;1.10;;
29320;SDS011;16323;51.130;6.612;2023-04-15T01:00:51;2.80;;;1.10;;
29320;SDS011;16323;51.130;6.612;2023-04-15T01:03:19;1.75;;;1.00;;
29320;SDS011;16323;51.130;6.612;2023-04-15T01:05:46;2.35;;;1.05;;
29320;SDS011;16323;51.130;6.612;2023-04-15T01:08:13;1.65;;;1.17;;
29320;SDS011;16323;51.130;6.612;2023-04-15T01:10:40;1.67;;;1.08;;
29320;SDS011;16323;51.130;6.612;2023-04-15T01:13:08;1.48;;;0.90;;
29320;SDS011;16323;51.130;6.612;2023-04-15T01:15:34;1.30;;;1.00;;
29320;SDS011;16323;51.130;6.612;2023-04-15T01:18:03;3.53;;;1.10;;
29320;SDS011;16323;51.130;6.612;2023-04-15T01:20:30;1.13;;;0.98;;
29320;SDS011;16323;51.130;6.612;2023-04-15T01:22:56;2.42;;;1.10;;
29320;SDS011;16323;51.130;6.612;2023-04-15T01:25:27;2.20;;;1.08;;
29320;SDS011;16323;51.130;6.612;2023-04-15T01:27:57;1.52;;;1.20;;
29320;SDS011;16323;51.130;6.612;2023-04-15T01:30:24;2.63;;;1.20;;
29320;SDS011;16323;51.130;6.612;2023-04-15T01:32:51;2.33;;;1.17;;
29320;SDS011;16323;51.130;6.612;2023-04-15T01:35:18;2.85;;;1.25;;
29320;SDS011;16323;51.130;6.612;2023-04-15T01:37:46;1.83;;;1.05;;
29320;SDS011;16323;51.130;6.612;2023-04-15T01:40:13;1.83;;;0.93;;
29320;SDS011;16323;51.130;6.612;2023-04-15T01:42:42;3.63;;;1.20;;
29320;SDS011;16323;51.130;6.612;2023-04-15T01:45:09;1.60;;;0.77;;
29320;SDS011;16323;51.130;6.612;2023-04-15T01:47:36;2.03;;;1.20;;
29320;SDS011;16323;51.130;6.612;2023-04-15T01:50:03;2.38;;;0.90;;
29320;SDS011;16323;51.130;6.612;2023-04-15T01:52:31;1.38;;;0.90;;
29320;SDS011;16323;51.130;6.612;2023-04-15T01:54:57;2.03;;;0.80;;
29320;SDS011;16323;51.130;6.612;2023-04-15T01:57:24;0.85;;;0.75;;
29320;SDS011;16323;51.130;6.612;2023-04-15T01:59:52;1.35;;;0.80;;
29320;SDS011;16323;51.130;6.612;2023-04-15T02:02:20;1.30;;;0.80;;
29320;SDS011;16323;51.130;6.612;2023-04-15T02:04:46;4.15;;;0.93;;
29320;SDS011;16323;51.130;6.612;2023-04-15T02:07:14;2.28;;;0.80;;
29320;SDS011;16323;51.130;6.612;2023-04-15T02:09:41;3.38;;;1.13;;
29320;SDS011;16323;51.130;6.612;2023-04-15T02:12:10;1.40;;;0.80;;
29320;SDS011;16323;51.130;6.612;2023-04-15T02:14:36;2.45;;;1.00;;
29320;SDS011;16323;51.130;6.612;2023-04-15T02:17:04;2.13;;;1.00;;
29320;SDS011;16323;51.130;6.612;2023-04-15T02:19:32;1.40;;;0.80;;
29320;SDS011;16323;51.130;6.612;2023-04-15T02:21:59;1.73;;;1.00;;
29320;SDS011;16323;51.130;6.612;2023-04-15T02:24:26;0.70;;;0.60;;
29320;SDS011;16323;51.130;6.612;2023-04-15T02:26:54;1.58;;;0.80;;
29320;SDS011;16323;51.130;6.612;2023-04-15T02:29:21;1.98;;;1.20;;
29320;SDS011;16323;51.130;6.612;2023-04-15T02:31:48;1.38;;;0.70;;
29320;SDS011;16323;51.130;6.612;2023-04-15T02:34:16;1.15;;;0.80;;
29320;SDS011;16323;51.130;6.612;2023-04-15T02:36:43;2.28;;;0.98;;
29320;SDS011;16323;51.130;6.612;2023-04-15T02:39:11;1.40;;;0.93;;
29320;SDS011;16323;51.130;6.612;2023-04-15T02:41:40;1.58;;;0.93;;
29320;SDS011;16323;51.130;6.612;2023-04-15T02:44:07;1.65;;;0.80;;
29320;SDS011;16323;51.130;6.612;2023-04-15T02:46:36;1.52;;;1.00;;
29320;SDS011;16323;51.130;6.612;2023-04-15T02:49:05;2.30;;;1.10;;
29320;SDS011;16323;51.130;6.612;2023-04-15T02:51:33;2.30;;;1.02;;
29320;SDS011;16323;51.130;6.612;2023-04-15T02:54:00;2.28;;;1.02;;
29320;SDS011;16323;51.130;6.612;2023-04-15T02:56:27;2.13;;;1.20;;
29320;SDS011;16323;51.130;6.612;2023-04-15T02:58:54;1.58;;;0.70;;
29320;SDS011;16323;51.130;6.612;2023-04-15T03:01:21;1.80;;;0.90;;
29320;SDS011;16323;51.130;6.612;2023-04-15T03:03:48;2.97;;;1.08;;
29320;SDS011;16323;51.130;6.612;2023-04-15T03:06:14;2.60;;;1.15;;
29320;SDS011;16323;51.130;6.612;2023-04-15T03:08:42;1.55;;;0.90;;
29320;SDS011;16323;51.130;6.612;2023-04-15T03:11:09;1.63;;;1.10;;
29320;SDS011;16323;51.130;6.612;2023-04-15T03:13:36;3.15;;;1.20;;
29320;SDS011;16323;51.130;6.612;2023-04-15T03:16:06;1.35;;;0.68;;
29320;SDS011;16323;51.130;6.612;2023-04-15T03:18:33;1.98;;;0.77;;
29320;SDS011;16323;51.130;6.612;2023-04-15T03:21:00;1.55;;;0.80;;
29320;SDS011;16323;51.130;6.612;2023-04-15T03:23:27;2.75;;;1.02;;
29320;SDS011;16323;51.130;6.612;2023-04-15T03:25:55;1.38;;;0.90;;
29320;SDS011;16323;51.130;6.612;2023-04-15T03:28:22;1.13;;;0.88;;
29320;SDS011;16323;51.130;6.612;2023-04-15T03:30:49;0.80;;;0.80;;
29320;SDS011;16323;51.130;6.612;2023-04-15T03:33:16;2.60;;;1.10;;
29320;SDS011;16323;51.130;6.612;2023-04-15T03:35:43;1.63;;;0.98;;
29320;SDS011;16323;51.130;6.612;2023-04-15T03:38:10;1.40;;;1.00;;
29320;SDS011;16323;51.130;6.612;2023-04-15T03:40:37;1.00;;;0.90;;
29320;SDS011;16323;51.130;6.612;2023-04-15T03:43:05;1.35;;;1.00;;
29320;SDS011;16323;51.130;6.612;2023-04-15T03:45:32;1.42;;;1.10;;
29320;SDS011;16323;51.130;6.612;2023-04-15T03:47:59;1.65;;;0.98;;
29320;SDS011;16323;51.130;6.612;2023-04-15T03:50:26;1.58;;;0.90;;
29320;SDS011;16323;51.130;6.612;2023-04-15T03:52:53;1.85;;;1.00;;
29320;SDS011;16323;51.130;6.612;2023-04-15T03:55:20;1.65;;;0.98;;
29320;SDS011;16323;51.130;6.612;2023-04-15T03:57:47;1.45;;;1.05;;
29320;SDS011;16323;51.130;6.612;2023-04-15T04:00:15;2.08;;;0.90;;
29320;SDS011;16323;51.130;6.612;2023-04-15T04:02:42;2.13;;;1.15;;
29320;SDS011;16323;51.130;6.612;2023-04-15T04:05:09;1.35;;;0.90;;
29320;SDS011;16323;51.130;6.612;2023-04-15T04:07:36;1.55;;;1.10;;
29320;SDS011;16323;51.130;6.612;2023-04-15T04:10:03;2.30;;;0.88;;
29320;SDS011;16323;51.130;6.612;2023-04-15T04:12:31;2.55;;;1.20;;
29320;SDS011;16323;51.130;6.612;2023-04-15T04:14:57;3.53;;;1.20;;
29320;SDS011;16323;51.130;6.612;2023-04-15T04:17:26;1.67;;;1.30;;
29320;SDS011;16323;51.130;6.612;2023-04-15T04:19:52;2.15;;;1.67;;
29320;SDS011;16323;51.130;6.612;2023-04-15T04:22:21;1.67;;;1.05;;
29320;SDS011;16323;51.130;6.612;2023-04-15T04:24:48;2.53;;;1.00;;
29320;SDS011;16323;51.130;6.612;2023-04-15T04:27:14;1.00;;;0.90;;
29320;SDS011;16323;51.130;6.612;2023-04-15T04:29:41;1.50;;;1.20;;
29320;SDS011;16323;51.130;6.612;2023-04-15T04:32:08;1.60;;;1.17;;
29320;SDS011;16323;51.130;6.612;2023-04-15T04:34:37;2.35;;;0.90;;
29320;SDS011;16323;51.130;6.612;2023-04-15T04:37:04;2.58;;;1.27;;
29320;SDS011;16323;51.130;6.612;2023-04-15T04:39:31;2.00;;;1.00;;
29320;SDS011;16323;51.130;6.612;2023-04-15T04:41:58;2.38;;;1.35;;
29320;SDS011;16323;51.130;6.612;2023-04-15T04:44:25;2.90;;;1.30;;
29320;SDS011;16323;51.130;6.612;2023-04-15T04:46:52;2.60;;;1.10;;
29320;SDS011;16323;51.130;6.612;2023-04-15T04:49:18;2.45;;;1.15;;
29320;SDS011;16323;51.130;6.612;2023-04-15T04:51:47;2.67;;;1.45;;
29320;SDS011;16323;51.130;6.612;2023-04-15T04:54:14;2.53;;;1.40;;
29320;SDS011;16323;51.130;6.612;2023-04-15T04:56:41;2.33;;;1.38;;
29320;SDS011;16323;51.130;6.612;2023-04-15T04:59:08;2.45;;;1.50;;
29320;SDS011;16323;51.130;6.612;2023-04-15T05:01:35;3.20;;;1.20;;
29320;SDS011;16323;51.130;6.612;2023-04-15T05:04:02;2.95;;;1.30;;
29320;SDS011;16323;51.130;6.612;2023-04-15T05:06:29;2.25;;;1.20;;
29320;SDS011;16323;51.130;6.612;2023-04-15T05:08:58;2.75;;;1.30;;
29320;SDS011;16323;51.130;6.612;2023-04-15T05:11:25;3.17;;;1.55;;
29320;SDS011;16323;51.130;6.612;2023-04-15T05:13:52;2.15;;;1.30;;
29320;SDS011;16323;51.130;6.612;2023-04-15T05:16:19;4.18;;;1.50;;
29320;SDS011;16323;51.130;6.612;2023-04-15T05:18:46;2.85;;;1.20;;
29320;SDS011;16323;51.130;6.612;2023-04-15T05:21:12;2.20;;;1.20;;
29320;SDS011;16323;51.130;6.612;2023-04-15T05:23:39;3.40;;;1.30;;
29320;SDS011;16323;51.130;6.612;2023-04-15T05:26:08;2.55;;;1.30;;
29320;SDS011;16323;51.130;6.612;2023-04-15T05:28:34;2.67;;;1.50;;
29320;SDS011;16323;51.130;6.612;2023-04-15T05:31:01;2.30;;;1.50;;
29320;SDS011;16323;51.130;6.612;2023-04-15T05:33:28;4.28;;;1.40;;
29320;SDS011;16323;51.130;6.612;2023-04-15T05:35:55;2.95;;;1.50;;
29320;SDS011;16323;51.130;6.612;2023-04-15T05:38:21;3.40;;;1.42;;
29320;SDS011;16323;51.130;6.612;2023-04-15T05:40:48;2.28;;;1.40;;
29320;SDS011;16323;51.130;6.612;2023-04-15T05:43:17;3.22;;;1.55;;
29320;SDS011;16323;51.130;6.612;2023-04-15T05:45:44;2.17;;;1.48;;
29320;SDS011;16323;51.130;6.612;2023-04-15T05:48:10;2.50;;;1.38;;
29320;SDS011;16323;51.130;6.612;2023-04-15T05:50:39;4.45;;;1.60;;
29320;SDS011;16323;51.130;6.612;2023-04-15T05:53:06;2.72;;;1.52;;
29320;SDS011;16323;51.130;6.612;2023-04-15T05:55:33;2.22;;;1.50;;
29320;SDS011;16323;51.130;6.612;2023-04-15T05:58:00;1.90;;;1.33;;
29320;SDS011;16323;51.130;6.612;2023-04-15T06:00:29;2.17;;;1.30;;
29320;SDS011;16323;51.130;6.612;2023-04-15T06:02:57;2.58;;;1.48;;
29320;SDS011;16323;51.130;6.612;2023-04-15T06:05:24;2.13;;;1.40;;
29320;SDS011;16323;51.130;6.612;2023-04-15T06:07:51;2.38;;;1.10;;
29320;SDS011;16323;51.130;6.612;2023-04-15T06:10:18;2.55;;;1.50;;
29320;SDS011;16323;51.130;6.612;2023-04-15T06:12:45;1.88;;;1.38;;
29320;SDS011;16323;51.130;6.612;2023-04-15T06:15:12;2.70;;;1.40;;
29320;SDS011;16323;51.130;6.612;2023-04-15T06:17:40;2.78;;;1.35;;
29320;SDS011;16323;51.130;6.612;2023-04-15T06:20:07;2.60;;;1.40;;
29320;SDS011;16323;51.130;6.612;2023-04-15T06:22:35;2.47;;;1.40;;
29320;SDS011;16323;51.130;6.612;2023-04-15T06:25:03;2.70;;;1.45;;
29320;SDS011;16323;51.130;6.612;2023-04-15T06:27:32;2.38;;;1.50;;
29320;SDS011;16323;51.130;6.612;2023-04-15T06:29:58;2.17;;;1.40;;
29320;SDS011;16323;51.130;6.612;2023-04-15T06:32:25;4.25;;;1.80;;
29320;SDS011;16323;51.130;6.612;2023-04-15T06:34:53;1.92;;;1.30;;
29320;SDS011;16323;51.130;6.612;2023-04-15T06:37:20;2.70;;;1.65;;
29320;SDS011;16323;51.130;6.612;2023-04-15T06:39:47;3.88;;;1.50;;
29320;SDS011;16323;51.130;6.612;2023-04-15T06:42:14;3.80;;;1.50;;
29320;SDS011;16323;51.130;6.612;2023-04-15T06:44:41;2.70;;;1.60;;
29320;SDS011;16323;51.130;6.612;2023-04-15T06:47:08;2.28;;;1.42;;
29320;SDS011;16323;51.130;6.612;2023-04-15T06:49:37;3.28;;;1.90;;
29320;SDS011;16323;51.130;6.612;2023-04-15T06:52:05;2.85;;;1.50;;
29320;SDS011;16323;51.130;6.612;2023-04-15T06:54:32;2.85;;;1.90;;
29320;SDS011;16323;51.130;6.612;2023-04-15T06:56:59;4.07;;;2.00;;
29320;SDS011;16323;51.130;6.612;2023-04-15T06:59:26;5.07;;;2.22;;
29320;SDS011;16323;51.130;6.612;2023-04-15T07:01:53;3.05;;;1.88;;
29320;SDS011;16323;51.130;6.612;2023-04-15T07:04:20;3.00;;;1.70;;
29320;SDS011;16323;51.130;6.612;2023-04-15T07:06:47;2.67;;;1.58;;
29320;SDS011;16323;51.130;6.612;2023-04-15T07:09:15;2.80;;;1.80;;
29320;SDS011;16323;51.130;6.612;2023-04-15T07:11:42;2.55;;;1.98;;
29320;SDS011;16323;51.130;6.612;2023-04-15T07:14:09;3.05;;;1.80;;
29320;SDS011;16323;51.130;6.612;2023-04-15T07:16:35;2.97;;;1.67;;
29320;SDS011;16323;51.130;6.612;2023-04-15T07:19:02;3.15;;;2.08;;
29320;SDS011;16323;51.130;6.612;2023-04-15T07:21:29;2.75;;;1.67;;
29320;SDS011;16323;51.130;6.612;2023-04-15T07:23:56;5.30;;;2.33;;
29320;SDS011;16323;51.130;6.612;2023-04-15T07:26:24;2.33;;;1.98;;
29320;SDS011;16323;51.130;6.612;2023-04-15T07:28:51;3.25;;;2.17;;
29320;SDS011;16323;51.130;6.612;2023-04-15T07:31:18;2.85;;;2.08;;
29320;SDS011;16323;51.130;6.612;2023-04-15T07:33:45;3.50;;;2.83;;
29320;SDS011;16323;51.130;6.612;2023-04-15T07:36:12;3.37;;;2.13;;
29320;SDS011;16323;51.130;6.612;2023-04-15T07:38:39;4.13;;;2.05;;
29320;SDS011;16323;51.130;6.612;2023-04-15T07:41:07;2.83;;;2.20;;
29320;SDS011;16323;51.130;6.612;2023-04-15T07:43:35;2.80;;;2.30;;
29320;SDS011;16323;51.130;6.612;2023-04-15T07:46:03;4.43;;;2.42;;
29320;SDS011;16323;51.130;6.612;2023-04-15T07:48:30;3.10;;;2.22;;
29320;SDS011;16323;51.130;6.612;2023-04-15T07:50:57;2.42;;;1.80;;
29320;SDS011;16323;51.130;6.612;2023-04-15T07:53:24;4.43;;;2.10;;
29320;SDS011;16323;51.130;6.612;2023-04-15T07:55:51;3.67;;;2.20;;
29320;SDS011;16323;51.130;6.612;2023-04-15T07:58:18;3.72;;;1.88;;
29320;SDS011;16323;51.130;6.612;2023-04-15T08:00:46;2.67;;;1.70;;
29320;SDS011;16323;51.130;6.612;2023-04-15T08:03:13;4.03;;;2.15;;
29320;SDS011;16323;51.130;6.612;2023-04-15T08:05:40;3.03;;;1.92;;
29320;SDS011;16323;51.130;6.612;2023-04-15T08:08:07;4.00;;;1.70;;
29320;SDS011;16323;51.130;6.612;2023-04-15T08:10:34;2.55;;;1.73;;
29320;SDS011;16323;51.130;6.612;2023-04-15T08:13:01;2.55;;;1.90;;
29320;SDS011;16323;51.130;6.612;2023-04-15T08:15:27;1.65;;;1.30;;
29320;SDS011;16323;51.130;6.612;2023-04-15T08:17:58;2.40;;;1.80;;
29320;SDS011;16323;51.130;6.612;2023-04-15T08:20:25;2.03;;;1.50;;
29320;SDS011;16323;51.130;6.612;2023-04-15T08:22:52;2.10;;;1.40;;
29320;SDS011;16323;51.130;6.612;2023-04-15T08:25:19;2.10;;;1.50;;
29320;SDS011;16323;51.130;6.612;2023-04-15T08:27:46;1.80;;;1.25;;
29320;SDS011;16323;51.130;6.612;2023-04-15T08:30:12;2.72;;;1.33;;
29320;SDS011;16323;51.130;6.612;2023-04-15T08:32:40;1.52;;;1.15;;
29320;SDS011;16323;51.130;6.612;2023-04-15T08:35:09;1.58;;;1.10;;
29320;SDS011;16323;51.130;6.612;2023-04-15T08:37:36;1.10;;;1.00;;
29320;SDS011;16323;51.130;6.612;2023-04-15T08:40:03;1.83;;;1.23;;
29320;SDS011;16323;51.130;6.612;2023-04-15T08:42:34;2.55;;;0.93;;
29320;SDS011;16323;51.130;6.612;2023-04-15T08:45:03;1.10;;;0.95;;
29320;SDS011;16323;51.130;6.612;2023-04-15T08:47:30;1.95;;;1.15;;
29320;SDS011;16323;51.130;6.612;2023-04-15T08:49:58;1.52;;;1.00;;
29320;SDS011;16323;51.130;6.612;2023-04-15T08:52:30;1.70;;;1.20;;
29320;SDS011;16323;51.130;6.612;2023-04-15T08:54:57;1.90;;;1.00;;
29320;SDS011;16323;51.130;6.612;2023-04-15T08:57:27;1.67;;;1.15;;
29320;SDS011;16323;51.130;6.612;2023-04-15T08:59:54;2.15;;;1.00;;
29320;SDS011;16323;51.130;6.612;2023-04-15T09:02:21;1.33;;;0.82;;
29320;SDS011;16323;51.130;6.612;2023-04-15T09:04:49;0.82;;;0.70;;
29320;SDS011;16323;51.130;6.612;2023-04-15T09:07:16;0.93;;;0.90;;
29320;SDS011;16323;51.130;6.612;2023-04-15T09:09:44;1.35;;;0.90;;
29320;SDS011;16323;51.130;6.612;2023-04-15T09:12:11;0.90;;;0.80;;
29320;SDS011;16323;51.130;6.612;2023-04-15T09:14:38;1.90;;;0.95;;
29320;SDS011;16323;51.130;6.612;2023-04-15T09:17:08;1.80;;;0.85;;
29320;SDS011;16323;51.130;6.612;2023-04-15T09:19:36;1.50;;;0.80;;
29320;SDS011;16323;51.130;6.612;2023-04-15T09:22:03;1.40;;;1.00;;
29320;SDS011;16323;51.130;6.612;2023-04-15T09:24:34;1.63;;;1.00;;
29320;SDS011;16323;51.130;6.612;2023-04-15T09:27:04;1.92;;;1.13;;
29320;SDS011;16323;51.130;6.612;2023-04-15T09:29:31;0.57;;;0.57;;
29320;SDS011;16323;51.130;6.612;2023-04-15T09:32:08;1.23;;;0.82;;
29320;SDS011;16323;51.130;6.612;2023-04-15T09:34:36;1.00;;;0.90;;
29320;SDS011;16323;51.130;6.612;2023-04-15T09:37:03;1.67;;;0.90;;
29320;SDS011;16323;51.130;6.612;2023-04-15T09:39:43;1.45;;;0.90;;
29320;SDS011;16323;51.130;6.612;2023-04-15T09:42:13;1.05;;;0.90;;
29320;SDS011;16323;51.130;6.612;2023-04-15T09:44:41;1.30;;;0.95;;
29320;SDS011;16323;51.130;6.612;2023-04-15T09:47:08;1.42;;;0.80;;
29320;SDS011;16323;51.130;6.612;2023-04-15T09:49:35;1.52;;;1.05;;
29320;SDS011;16323;51.130;6.612;2023-04-15T09:52:02;1.35;;;0.80;;
29320;SDS011;16323;51.130;6.612;2023-04-15T09:54:32;1.73;;;1.00;;
29320;SDS011;16323;51.130;6.612;2023-04-15T09:57:06;0.80;;;0.73;;
29320;SDS011;16323;51.130;6.612;2023-04-15T09:59:35;1.45;;;0.93;;
29320;SDS011;16323;51.130;6.612;2023-04-15T10:02:03;0.98;;;0.63;;
29320;SDS011;16323;51.130;6.612;2023-04-15T10:04:32;1.13;;;0.70;;
29320;SDS011;16323;51.130;6.612;2023-04-15T10:07:02;1.98;;;0.60;;
29320;SDS011;16323;51.130;6.612;2023-04-15T10:09:30;0.98;;;0.77;;
29320;SDS011;16323;51.130;6.612;2023-04-15T10:11:58;0.93;;;0.70;;
29320;SDS011;16323;51.130;6.612;2023-04-15T10:14:26;1.83;;;0.90;;
29320;SDS011;16323;51.130;6.612;2023-04-15T10:16:58;2.08;;;0.73;;
29320;SDS011;16323;51.130;6.612;2023-04-15T10:19:27;1.85;;;1.00;;
29320;SDS011;16323;51.130;6.612;2023-04-15T10:21:58;1.15;;;0.80;;
29320;SDS011;16323;51.130;6.612;2023-04-15T10:24:25;0.77;;;0.60;;
29320;SDS011;16323;51.130;6.612;2023-04-15T10:26:53;0.80;;;0.60;;
29320;SDS011;16323;51.130;6.612;2023-04-15T10:29:21;1.20;;;0.80;;
29320;SDS011;16323;51.130;6.612;2023-04-15T10:31:49;1.25;;;0.85;;
29320;SDS011;16323;51.130;6.612;2023-04-15T10:34:20;1.00;;;0.88;;
29320;SDS011;16323;51.130;6.612;2023-04-15T10:36:48;0.63;;;0.60;;
29320;SDS011;16323;51.130;6.612;2023-04-15T10:42:07;0.60;;;0.60;;
29320;SDS011;16323;51.130;6.612;2023-04-15T10:44:35;1.02;;;0.75;;
29320;SDS011;16323;51.130;6.612;2023-04-15T10:47:05;0.90;;;0.85;;
29320;SDS011;16323;51.130;6.612;2023-04-15T10:49:43;0.65;;;0.65;;
29320;SDS011;16323;51.130;6.612;2023-04-15T10:52:15;0.90;;;0.68;;
29320;SDS011;16323;51.130;6.612;2023-04-15T10:54:43;1.00;;;0.60;;
29320;SDS011;16323;51.130;6.612;2023-04-15T10:57:14;0.80;;;0.75;;
29320;SDS011;16323;51.130;6.612;2023-04-15T11:02:44;1.20;;;0.82;;
29320;SDS011;16323;51.130;6.612;2023-04-15T11:05:13;1.25;;;0.88;;
29320;SDS011;16323;51.130;6.612;2023-04-15T11:07:48;1.10;;;0.90;;
29320;SDS011;16323;51.130;6.612;2023-04-15T11:13:22;1.50;;;0.80;;
29320;SDS011;16323;51.130;6.612;2023-04-15T11:15:53;1.30;;;1.10;;
29320;SDS011;16323;51.130;6.612;2023-04-15T11:18:22;1.05;;;0.80;;
29320;SDS011;16323;51.130;6.612;2023-04-15T11:20:52;1.83;;;1.00;;
29320;SDS011;16323;51.130;6.612;2023-04-15T11:23:26;1.00;;;0.90;;
29320;SDS011;16323;51.130;6.612;2023-04-15T11:25:54;1.05;;;0.95;;
29320;SDS011;16323;51.130;6.612;2023-04-15T11:28:23;1.00;;;0.90;;
29320;SDS011;16323;51.130;6.612;2023-04-15T11:30:51;1.08;;;0.98;;
29320;SDS011;16323;51.130;6.612;2023-04-15T11:33:19;1.00;;;0.90;;
29320;SDS011;16323;51.130;6.612;2023-04-15T11:35:46;1.52;;;0.95;;
29320;SDS011;16323;51.130;6.612;2023-04-15T11:38:14;3.75;;;1.10;;
29320;SDS011;16323;51.130;6.612;2023-04-15T11:40:42;0.80;;;0.80;;
29320;SDS011;16323;51.130;6.612;2023-04-15T11:43:09;0.90;;;0.85;;
29320;SDS011;16323;51.130;6.612;2023-04-15T11:45:43;1.02;;;0.93;;
29320;SDS011;16323;51.130;6.612;2023-04-15T11:48:15;1.13;;;1.00;;
29320;SDS011;16323;51.130;6.612;2023-04-15T11:50:42;0.95;;;0.90;;
29320;SDS011;16323;51.130;6.612;2023-04-15T11:53:10;1.10;;;1.00;;
29320;SDS011;16323;51.130;6.612;2023-04-15T11:55:42;0.98;;;0.90;;
29320;SDS011;16323;51.130;6.612;2023-04-15T11:58:11;0.77;;;0.77;;
29320;SDS011;16323;51.130;6.612;2023-04-15T12:00:39;1.08;;;0.95;;
29320;SDS011;16323;51.130;6.612;2023-04-15T12:03:13;1.10;;;1.00;;
29320;SDS011;16323;51.130;6.612;2023-04-15T12:06:02;1.20;;;1.05;;
29320;SDS011;16323;51.130;6.612;2023-04-15T12:08:50;1.25;;;0.88;;
29320;SDS011;16323;51.130;6.612;2023-04-15T12:11:20;1.92;;;1.10;;
29320;SDS011;16323;51.130;6.612;2023-04-15T12:13:54;1.00;;;0.80;;
29320;SDS011;16323;51.130;6.612;2023-04-15T12:16:22;1.13;;;1.00;;
29320;SDS011;16323;51.130;6.612;2023-04-15T12:18:49;0.60;;;0.60;;
29320;SDS011;16323;51.130;6.612;2023-04-15T12:21:17;0.95;;;0.80;;
29320;SDS011;16323;51.130;6.612;2023-04-15T12:23:48;0.77;;;0.75;;
29320;SDS011;16323;51.130;6.612;2023-04-15T12:26:15;1.48;;;0.80;;
29320;SDS011;16323;51.130;6.612;2023-04-15T12:28:44;0.73;;;0.70;;
29320;SDS011;16323;51.130;6.612;2023-04-15T12:31:11;0.98;;;0.70;;
29320;SDS011;16323;51.130;6.612;2023-04-15T12:33:39;0.90;;;0.60;;
29320;SDS011;16323;51.130;6.612;2023-04-15T12:36:06;0.70;;;0.70;;
29320;SDS011;16323;51.130;6.612;2023-04-15T12:38:33;1.35;;;0.90;;
29320;SDS011;16323;51.130;6.612;2023-04-15T12:41:00;0.73;;;0.70;;
29320;SDS011;16323;51.130;6.612;2023-04-15T12:43:26;0.70;;;0.70;;
29320;SDS011;16323;51.130;6.612;2023-04-15T12:45:55;1.30;;;0.90;;
29320;SDS011;16323;51.130;6.612;2023-04-15T12:48:21;0.95;;;0.82;;
29320;SDS011;16323;51.130;6.612;2023-04-15T12:50:48;1.15;;;0.95;;
29320;SDS011;16323;51.130;6.612;2023-04-15T12:53:15;0.95;;;0.70;;
29320;SDS011;16323;51.130;6.612;2023-04-15T12:55:42;1.02;;;0.88;;
29320;SDS011;16323;51.130;6.612;2023-04-15T12:58:09;1.02;;;0.80;;
29320;SDS011;16323;51.130;6.612;2023-04-15T13:00:36;0.60;;;0.60;;
29320;SDS011;16323;51.130;6.612;2023-04-15T13:03:04;0.50;;;0.50;;
29320;SDS011;16323;51.130;6.612;2023-04-15T13:05:31;0.75;;;0.73;;
29320;SDS011;16323;51.130;6.612;2023-04-15T13:07:57;1.25;;;0.60;;
29320;SDS011;16323;51.130;6.612;2023-04-15T13:10:24;0.68;;;0.68;;
29320;SDS011;16323;51.130;6.612;2023-04-15T13:12:52;1.02;;;0.80;;
29320;SDS011;16323;51.130;6.612;2023-04-15T13:15:20;0.70;;;0.52;;
29320;SDS011;16323;51.130;6.612;2023-04-15T13:17:47;0.68;;;0.68;;
29320;SDS011;16323;51.130;6.612;2023-04-15T13:20:16;1.08;;;0.82;;
29320;SDS011;16323;51.130;6.612;2023-04-15T13:22:42;1.15;;;0.70;;
29320;SDS011;16323;51.130;6.612;2023-04-15T13:25:09;1.00;;;0.70;;
29320;SDS011;16323;51.130;6.612;2023-04-15T13:27:36;0.70;;;0.70;;
29320;SDS011;16323;51.130;6.612;2023-04-15T13:30:03;0.65;;;0.65;;
29320;SDS011;16323;51.130;6.612;2023-04-15T13:32:31;0.68;;;0.55;;
29320;SDS011;16323;51.130;6.612;2023-04-15T13:34:58;0.60;;;0.60;;
29320;SDS011;16323;51.130;6.612;2023-04-15T13:37:26;1.27;;;0.60;;
29320;SDS011;16323;51.130;6.612;2023-04-15T13:39:54;1.02;;;0.60;;
29320;SDS011;16323;51.130;6.612;2023-04-15T13:42:21;1.17;;;0.63;;
29320;SDS011;16323;51.130;6.612;2023-04-15T13:44:49;0.52;;;0.50;;
29320;SDS011;16323;51.130;6.612;2023-04-15T13:47:16;0.50;;;0.45;;
29320;SDS011;16323;51.130;6.612;2023-04-15T13:49:44;0.85;;;0.60;;
29320;SDS011;16323;51.130;6.612;2023-04-15T13:52:10;1.35;;;0.60;;
29320;SDS011;16323;51.130;6.612;2023-04-15T13:54:39;0.55;;;0.50;;
29320;SDS011;16323;51.130;6.612;2023-04-15T13:57:06;0.52;;;0.52;;
29320;SDS011;16323;51.130;6.612;2023-04-15T13:59:33;0.47;;;0.40;;
29320;SDS011;16323;51.130;6.612;2023-04-15T14:01:59;0.40;;;0.40;;
29320;SDS011;16323;51.130;6.612;2023-04-15T14:04:26;0.63;;;0.55;;
29320;SDS011;16323;51.130;6.612;2023-04-15T14:06:53;0.63;;;0.40;;
29320;SDS011;16323;51.130;6.612;2023-04-15T14:09:21;0.60;;;0.57;;
29320;SDS011;16323;51.130;6.612;2023-04-15T14:11:49;0.65;;;0.57;;
29320;SDS011;16323;51.130;6.612;2023-04-15T14:14:16;0.70;;;0.50;;
29320;SDS011;16323;51.130;6.612;2023-04-15T14:16:43;0.65;;;0.50;;
29320;SDS011;16323;51.130;6.612;2023-04-15T14:19:10;0.60;;;0.60;;
29320;SDS011;16323;51.130;6.612;2023-04-15T14:21:36;0.75;;;0.60;;
29320;SDS011;16323;51.130;6.612;2023-04-15T14:24:03;0.80;;;0.60;;
29320;SDS011;16323;51.130;6.612;2023-04-15T14:26:31;1.20;;;0.60;;
29320;SDS011;16323;51.130;6.612;2023-04-15T14:28:59;0.45;;;0.45;;
29320;SDS011;16323;51.130;6.612;2023-04-15T14:31:26;0.90;;;0.63;;
29320;SDS011;16323;51.130;6.612;2023-04-15T14:33:52;0.60;;;0.55;;
29320;SDS011;16323;51.130;6.612;2023-04-15T14:36:19;0.55;;;0.50;;
29320;SDS011;16323;51.130;6.612;2023-04-15T14:38:46;0.68;;;0.55;;
29320;SDS011;16323;51.130;6.612;2023-04-15T14:41:13;1.80;;;0.68;;
29320;SDS011;16323;51.130;6.612;2023-04-15T14:43:40;0.88;;;0.60;;
29320;SDS011;16323;51.130;6.612;2023-04-15T14:46:08;1.20;;;0.55;;
29320;SDS011;16323;51.130;6.612;2023-04-15T14:48:36;0.77;;;0.60;;
29320;SDS011;16323;51.130;6.612;2023-04-15T14:51:03;1.02;;;0.60;;
29320;SDS011;16323;51.130;6.612;2023-04-15T14:53:29;1.00;;;0.68;;
29320;SDS011;16323;51.130;6.612;2023-04-15T14:55:56;1.50;;;0.65;;
29320;SDS011;16323;51.130;6.612;2023-04-15T14:58:23;0.98;;;0.80;;
29320;SDS011;16323;51.130;6.612;2023-04-15T15:00:50;1.30;;;0.70;;